Time;durP1;ratioP1;P1;durP2;ratioP2;P2;SDS_P1;SDS_P2;PMS_P1;PMS_P2;Temp;Humidity;BMP_temperature;BMP_pressure;BME280_temperature;BME280_humidity;BME280_pressure;Samples;Min_cycle;Max_cycle;Signal;HPM_P1;HPM_P2
2022/06/04 00:00:36;;;;;;;12.02;6.72;;;11.50;99.90;;;;;;5028828;28;20494;-83
2022/06/04 00:03:03;;;;;;;11.05;6.30;;;11.50;99.90;;;;;;5029716;28;20131;-82
2022/06/04 00:05:32;;;;;;;9.45;6.35;;;11.50;99.90;;;;;;5027476;28;20127;-82
2022/06/04 00:08:00;;;;;;;9.82;6.88;;;11.50;99.90;;;;;;5025554;28;20064;-82
2022/06/04 00:15:59;;;;;;;9.05;5.30;;;11.40;99.90;;;;;;5055351;28;20033;-82
2022/06/04 00:18:25;;;;;;;11.70;5.97;;;11.40;99.90;;;;;;5069768;28;20048;-81
2022/06/04 00:20:53;;;;;;;8.52;7.05;;;11.30;99.90;;;;;;5065920;28;20040;-82
2022/06/04 00:23:19;;;;;;;8.07;5.65;;;11.30;99.90;;;;;;5028553;28;20072;-82
2022/06/04 00:25:49;;;;;;;11.05;6.65;;;11.30;99.90;;;;;;5027520;28;20036;-83
2022/06/04 00:28:16;;;;;;;13.43;6.40;;;11.20;99.90;;;;;;5028657;28;20053;-82
2022/06/04 00:30:42;;;;;;;10.95;6.80;;;11.30;99.90;;;;;;5026227;28;20049;-83
2022/06/04 00:33:07;;;;;;;9.98;5.40;;;11.20;99.90;;;;;;5028893;28;20048;-83
2022/06/04 00:35:34;;;;;;;12.02;6.57;;;11.20;99.90;;;;;;5029732;28;20037;-83
2022/06/04 00:38:01;;;;;;;11.32;7.10;;;11.20;99.90;;;;;;5026275;28;20041;-83
2022/06/04 00:40:53;;;;;;;12.13;6.88;;;11.20;99.90;;;;;;5026946;28;20124;-83
2022/06/04 00:43:20;;;;;;;11.32;6.82;;;11.10;99.90;;;;;;5024760;28;20063;-83
2022/06/04 00:46:17;;;;;;;12.07;6.45;;;11.20;99.90;;;;;;5011895;28;20051;-82
2022/06/04 00:48:42;;;;;;;13.35;6.32;;;11.10;99.90;;;;;;5041401;28;20593;-82
2022/06/04 00:51:08;;;;;;;8.45;6.13;;;11.10;99.90;;;;;;5025844;28;20048;-82
2022/06/04 00:53:35;;;;;;;11.10;7.75;;;11.10;99.90;;;;;;5025888;28;20516;-82
2022/06/04 00:56:17;;;;;;;11.98;7.25;;;11.00;99.90;;;;;;5025277;28;20037;-83
2022/06/04 00:59:03;;;;;;;9.27;5.85;;;11.00;99.90;;;;;;5027225;28;20561;-83
2022/06/04 01:01:52;;;;;;;7.28;5.85;;;11.00;99.90;;;;;;5010406;28;20148;-83
2022/06/04 01:07:21;;;;;;;13.88;7.40;;;11.00;99.90;;;;;;5038374;28;20064;-83
2022/06/04 01:10:08;;;;;;;10.38;7.40;;;10.90;99.90;;;;;;5042457;28;20083;-82
2022/06/04 01:12:44;;;;;;;11.23;7.32;;;10.90;99.90;;;;;;5027041;28;20060;-82
2022/06/04 01:15:19;;;;;;;9.63;7.82;;;10.90;99.90;;;;;;5026805;28;20121;-82
2022/06/04 01:18:06;;;;;;;12.70;7.50;;;10.90;99.90;;;;;;5026872;28;20041;-83
2022/06/04 01:20:31;;;;;;;12.10;7.72;;;10.80;99.90;;;;;;5040212;28;20661;-83
2022/06/04 01:23:07;;;;;;;15.07;8.43;;;10.80;99.90;;;;;;5025212;28;20046;-83
2022/06/04 01:26:05;;;;;;;14.13;8.30;;;10.80;99.90;;;;;;5027385;28;20053;-83
2022/06/04 01:28:37;;;;;;;11.98;8.00;;;10.80;99.90;;;;;;5028987;28;20037;-83
2022/06/04 01:31:06;;;;;;;6.63;5.97;;;10.70;99.90;;;;;;5026603;28;20064;-83
2022/06/04 01:33:42;;;;;;;12.90;7.65;;;10.70;99.90;;;;;;5026779;28;20053;-83
2022/06/04 01:36:17;;;;;;;13.95;7.97;;;10.70;99.90;;;;;;5023984;28;20570;-83
2022/06/04 01:39:01;;;;;;;12.10;7.25;;;10.70;99.90;;;;;;5024056;28;20049;-84
2022/06/04 01:41:28;;;;;;;11.35;7.63;;;10.70;99.90;;;;;;5009461;28;20164;-84
2022/06/04 01:44:05;;;;;;;11.98;8.30;;;10.70;99.90;;;;;;5026731;28;20041;-84
2022/06/04 01:47:04;;;;;;;14.40;7.93;;;10.70;99.90;;;;;;5028556;28;20106;-84
2022/06/04 01:49:34;;;;;;;12.35;7.72;;;10.60;99.90;;;;;;5016348;28;20114;-84
2022/06/04 01:52:22;;;;;;;13.77;8.13;;;10.60;99.90;;;;;;5026837;28;20064;-83
2022/06/04 01:54:52;;;;;;;13.90;8.05;;;10.60;99.90;;;;;;5024986;28;20092;-84
2022/06/04 01:57:32;;;;;;;15.82;8.25;;;10.60;99.90;;;;;;5024522;28;20237;-83
2022/06/04 02:00:13;;;;;;;13.07;8.32;;;10.60;99.90;;;;;;5026822;28;20539;-84
2022/06/04 02:02:55;;;;;;;12.30;6.95;;;10.60;99.90;;;;;;5008493;28;20036;-84
2022/06/04 02:05:30;;;;;;;13.77;7.80;;;10.60;99.90;;;;;;5032956;28;20055;-84
2022/06/04 02:07:59;;;;;;;12.70;6.72;;;10.50;99.90;;;;;;5021261;28;20049;-85
2022/06/04 02:10:37;;;;;;;11.77;8.15;;;10.50;99.90;;;;;;5027596;28;20501;-85
2022/06/04 02:13:08;;;;;;;17.10;9.52;;;10.50;99.90;;;;;;5025146;28;20121;-85
2022/06/04 02:15:58;;;;;;;21.30;8.63;;;10.50;99.90;;;;;;5022938;28;20041;-85
2022/06/04 02:18:24;;;;;;;16.73;10.18;;;10.50;99.90;;;;;;5026049;28;20053;-85
2022/06/04 02:20:50;;;;;;;17.83;9.55;;;10.50;99.90;;;;;;5021017;28;20056;-84
2022/06/04 02:23:16;;;;;;;16.58;9.52;;;10.50;99.90;;;;;;5021630;28;20136;-84
2022/06/04 02:25:42;;;;;;;14.00;9.75;;;10.50;99.90;;;;;;5023597;28;20128;-84
2022/06/04 02:28:07;;;;;;;13.40;9.23;;;10.40;99.90;;;;;;5024673;28;20036;-84
2022/06/04 02:31:07;;;;;;;13.70;9.48;;;10.40;99.90;;;;;;5024830;28;20375;-84
2022/06/04 02:33:38;;;;;;;14.93;9.48;;;10.40;99.90;;;;;;5007939;28;20050;-85
2022/06/04 02:36:10;;;;;;;12.30;7.82;;;10.40;99.90;;;;;;5017769;28;20821;-84
2022/06/04 02:38:52;;;;;;;18.65;10.05;;;10.40;99.90;;;;;;5021424;28;20037;-84
2022/06/04 02:41:24;;;;;;;12.70;9.10;;;10.40;99.90;;;;;;5024178;28;20070;-84
2022/06/04 02:44:02;;;;;;;15.60;9.77;;;10.40;99.90;;;;;;5022694;28;20561;-84
2022/06/04 02:46:44;;;;;;;15.25;10.30;;;10.30;99.90;;;;;;5022828;28;21287;-84
2022/06/04 02:49:25;;;;;;;16.63;10.07;;;10.30;99.90;;;;;;5024538;28;20430;-83
2022/06/04 02:51:53;;;;;;;13.68;8.73;;;10.30;99.90;;;;;;5022891;28;20368;-84
2022/06/04 02:54:22;;;;;;;;;;;10.30;99.90;;;;;;5022771;28;20041;-82
2022/06/04 02:56:50;;;;;;;12.57;8.93;;;10.30;99.90;;;;;;5023678;28;20381;-82
2022/06/04 02:59:18;;;;;;;15.95;9.88;;;10.20;99.90;;;;;;5023416;28;20072;-82
2022/06/04 03:01:47;;;;;;;14.27;9.13;;;10.30;99.90;;;;;;5040788;28;20053;-82
2022/06/04 03:04:13;;;;;;;17.73;10.68;;;10.20;99.90;;;;;;5023919;28;20608;-82
2022/06/04 03:06:39;;;;;;;18.30;11.60;;;10.20;99.90;;;;;;5024334;28;20056;-82
2022/06/04 03:09:09;;;;;;;14.82;9.55;;;10.20;99.90;;;;;;5025759;28;20483;-82
2022/06/04 03:11:45;;;;;;;17.50;11.07;;;10.20;99.90;;;;;;5027054;28;20041;-82
2022/06/04 03:14:12;;;;;;;17.85;10.77;;;10.20;99.90;;;;;;5026742;28;20071;-82
2022/06/04 03:16:39;;;;;;;16.50;10.77;;;10.20;99.90;;;;;;5027289;28;20041;-82
2022/06/04 03:19:07;;;;;;;13.30;10.20;;;10.20;99.90;;;;;;5027181;28;20060;-82
2022/06/04 03:21:34;;;;;;;19.23;10.77;;;10.20;99.90;;;;;;5024497;28;20448;-82
2022/06/04 03:24:00;;;;;;;18.07;11.07;;;10.20;99.90;;;;;;5026504;28;20056;-82
2022/06/04 03:26:26;;;;;;;17.52;10.02;;;10.20;99.90;;;;;;5026797;28;20049;-83
2022/06/04 03:28:51;;;;;;;19.33;11.02;;;10.20;99.90;;;;;;5024454;28;20049;-82
2022/06/04 03:31:17;;;;;;;15.45;11.30;;;10.20;99.90;;;;;;5026658;28;20525;-82
2022/06/04 03:33:42;;;;;;;17.40;10.55;;;10.20;99.90;;;;;;5022239;28;20049;-82
2022/06/04 03:36:10;;;;;;;15.30;10.50;;;10.20;99.90;;;;;;5025621;28;20049;-82
2022/06/04 03:38:36;;;;;;;18.85;10.90;;;10.20;99.90;;;;;;5025152;28;20057;-82
2022/06/04 03:41:01;;;;;;;16.27;9.82;;;10.20;99.90;;;;;;5030230;28;20060;-81
2022/06/04 03:43:27;;;;;;;16.95;9.88;;;10.20;99.90;;;;;;5026011;28;20053;-81
2022/06/04 03:45:53;;;;;;;9.82;7.18;;;10.20;99.90;;;;;;5042791;28;20051;-81
2022/06/04 03:48:19;;;;;;;18.10;10.15;;;10.20;99.90;;;;;;5028587;28;20057;-81
2022/06/04 03:50:44;;;;;;;15.73;9.65;;;10.30;99.90;;;;;;5042233;28;20104;-82
2022/06/04 03:53:10;;;;;;;17.25;11.32;;;10.30;99.90;;;;;;5032973;28;20064;-81
2022/06/04 03:55:35;;;;;;;13.05;9.82;;;10.30;99.90;;;;;;5030918;28;20336;-81
2022/06/04 03:58:02;;;;;;;13.95;10.25;;;10.40;99.90;;;;;;5021968;28;20105;-82
2022/06/04 04:00:29;;;;;;;15.80;9.80;;;10.40;99.90;;;;;;5023973;28;20033;-82
2022/06/04 04:03:02;;;;;;;13.47;9.90;;;;;;;;;;5044116;28;20064;-84
2022/06/04 04:05:34;;;;;;;14.43;9.98;;;10.60;99.90;;;;;;5028832;28;20049;-83
2022/06/04 04:08:01;;;;;;;13.32;9.13;;;10.50;99.90;;;;;;5027699;28;20091;-82
2022/06/04 04:10:29;;;;;;;14.32;9.32;;;10.60;99.90;;;;;;5029489;28;20064;-83
2022/06/04 04:12:54;;;;;;;12.88;9.13;;;10.60;99.90;;;;;;5029280;28;20160;-83
2022/06/04 04:15:21;;;;;;;12.82;8.45;;;10.70;99.90;;;;;;5044533;28;20038;-83
2022/06/04 04:17:47;;;;;;;13.80;8.43;;;10.70;99.90;;;;;;5029126;28;20048;-83
2022/06/04 04:20:19;;;;;;;13.05;7.90;;;10.80;99.90;;;;;;5026471;28;20048;-84
2022/06/04 04:22:45;;;;;;;14.82;8.80;;;10.70;99.90;;;;;;5026000;28;20052;-83
2022/06/04 04:25:13;;;;;;;13.68;9.00;;;10.80;99.90;;;;;;5030242;28;20044;-84
2022/06/04 04:27:39;;;;;;;;;;;10.90;99.90;;;;;;5026976;28;20054;-85
2022/06/04 04:30:14;;;;;;;12.88;7.30;;;11.00;99.90;;;;;;5029158;28;19933;-85
2022/06/04 04:32:41;;;;;;;13.38;8.52;;;11.00;99.90;;;;;;5029001;28;20076;-84
2022/06/04 04:35:11;;;;;;;14.07;7.13;;;11.50;99.90;;;;;;5026108;28;20128;-84
2022/06/04 04:37:37;;;;;;;10.98;7.60;;;11.90;99.90;;;;;;5041811;28;20049;-83
2022/06/04 04:40:03;;;;;;;12.63;8.15;;;12.30;99.90;;;;;;5030063;28;20049;-85
2022/06/04 04:42:29;;;;;;;10.00;7.32;;;12.70;99.90;;;;;;5030166;28;20053;-84
2022/06/04 04:44:55;;;;;;;13.20;7.60;;;13.10;99.90;;;;;;5028650;28;20461;-84
2022/06/04 04:47:21;;;;;;;10.05;6.40;;;;;;;;;;5025329;28;20045;-85
2022/06/04 04:49:46;;;;;;;9.68;7.38;;;13.30;99.90;;;;;;5026513;28;20405;-85
2022/06/04 04:52:13;;;;;;;10.50;6.97;;;13.40;99.90;;;;;;5025598;28;20056;-85
2022/06/04 04:54:38;;;;;;;10.10;6.97;;;13.80;99.90;;;;;;5028189;28;20077;-85
2022/06/04 04:57:04;;;;;;;10.85;7.05;;;14.50;99.90;;;;;;5027565;28;20132;-85
2022/06/04 04:59:30;;;;;;;10.63;6.30;;;14.80;99.90;;;;;;5029075;28;20049;-85
2022/06/04 05:01:55;;;;;;;7.93;6.38;;;15.20;99.90;;;;;;5027295;28;20072;-85
2022/06/04 05:04:22;;;;;;;9.35;5.82;;;;;;;;;;5026636;28;20204;-87
2022/06/04 05:06:47;;;;;;;9.20;6.13;;;15.40;99.90;;;;;;5041237;28;22205;-85
2022/06/04 05:09:14;;;;;;;9.02;6.28;;;15.50;99.90;;;;;;5024936;28;20060;-84
2022/06/04 05:11:40;;;;;;;9.50;6.28;;;15.90;99.90;;;;;;5028718;28;20052;-84
2022/06/04 05:14:05;;;;;;;10.15;6.03;;;15.70;99.90;;;;;;5043375;28;20053;-85
2022/06/04 05:16:37;;;;;;;8.57;5.40;;;16.00;99.90;;;;;;5027699;28;20126;-85
2022/06/04 05:19:03;;;;;;;9.95;5.20;;;15.50;99.90;;;;;;5029625;28;20033;-83
2022/06/04 05:21:38;;;;;;;8.93;6.07;;;15.60;99.90;;;;;;5041317;28;20164;-84
2022/06/04 05:24:04;;;;;;;7.65;5.68;;;16.00;99.90;;;;;;5009060;28;20114;-85
2022/06/04 05:26:31;;;;;;;7.18;5.63;;;16.10;99.90;;;;;;5027648;28;20072;-85
2022/06/04 05:28:56;;;;;;;7.90;5.07;;;15.90;99.90;;;;;;5025342;28;20502;-84
2022/06/04 05:31:23;;;;;;;8.25;5.57;;;15.80;99.90;;;;;;5024970;28;20048;-84
2022/06/04 05:33:48;;;;;;;8.65;5.43;;;15.80;99.90;;;;;;5032490;28;20041;-82
2022/06/04 05:36:14;;;;;;;12.00;5.68;;;15.90;99.90;;;;;;5026379;28;20052;-83
2022/06/04 05:38:40;;;;;;;11.50;6.15;;;16.30;99.90;;;;;;5025044;28;20049;-83
2022/06/04 05:41:10;;;;;;;8.77;5.57;;;16.30;99.90;;;;;;5026527;28;20551;-83
2022/06/04 05:43:39;;;;;;;5.80;5.22;;;16.40;99.90;;;;;;5027732;28;20413;-84
2022/06/04 05:46:07;;;;;;;10.25;5.40;;;16.60;99.90;;;;;;5042248;28;20048;-85
2022/06/04 05:48:36;;;;;;;8.55;5.35;;;16.80;99.90;;;;;;5024480;28;20057;-84
2022/06/04 05:51:02;;;;;;;7.15;5.35;;;16.90;99.90;;;;;;5028245;28;20083;-84
2022/06/04 05:53:27;;;;;;;7.22;5.57;;;16.70;99.90;;;;;;5025781;28;20052;-84
2022/06/04 05:55:53;;;;;;;8.60;5.68;;;16.90;99.90;;;;;;5027143;28;20071;-85
2022/06/04 05:58:19;;;;;;;6.80;5.22;;;17.20;99.90;;;;;;5026127;28;20110;-85
2022/06/04 06:00:45;;;;;;;9.75;5.47;;;17.10;99.90;;;;;;5025388;28;20040;-85
2022/06/04 06:03:11;;;;;;;7.28;4.90;;;17.60;99.90;;;;;;5028081;28;20052;-85
2022/06/04 06:05:42;;;;;;;8.80;5.68;;;17.90;99.90;;;;;;5028040;28;20107;-82
2022/06/04 06:08:08;;;;;;;8.27;4.88;;;17.60;99.90;;;;;;5026139;28;20100;-82
2022/06/04 06:10:39;;;;;;;9.82;4.72;;;17.50;99.90;;;;;;5027138;28;20087;-83
2022/06/04 06:13:05;;;;;;;6.40;4.75;;;17.30;99.90;;;;;;5028044;28;20092;-82
2022/06/04 06:15:31;;;;;;;7.78;4.45;;;17.20;99.90;;;;;;5040905;28;20123;-82
2022/06/04 06:17:56;;;;;;;7.72;5.00;;;17.30;99.90;;;;;;5028823;28;20486;-83
2022/06/04 06:20:22;;;;;;;6.80;4.68;;;17.30;99.90;;;;;;5029378;28;20091;-84
2022/06/04 06:22:47;;;;;;;6.10;4.57;;;17.30;99.90;;;;;;5026517;28;20075;-85
2022/06/04 06:25:13;;;;;;;7.00;4.82;;;18.20;99.90;;;;;;5029118;28;20052;-83
2022/06/04 06:27:39;;;;;;;8.60;4.97;;;18.30;99.90;;;;;;5028029;28;20151;-86
2022/06/04 06:30:05;;;;;;;7.20;4.70;;;18.10;99.90;;;;;;5026383;28;20068;-85
2022/06/04 06:32:31;;;;;;;6.53;4.30;;;18.10;99.90;;;;;;5025184;28;20060;-84
2022/06/04 06:34:57;;;;;;;5.85;4.63;;;18.60;99.90;;;;;;5026383;28;20482;-84
2022/06/04 06:37:22;;;;;;;6.05;4.22;;;19.30;99.90;;;;;;5025066;28;20037;-84
2022/06/04 06:39:48;;;;;;;5.38;4.35;;;19.80;99.90;;;;;;5025688;28;20045;-85
2022/06/04 06:42:13;;;;;;;7.43;4.82;;;18.90;99.90;;;;;;5025632;28;20037;-84
2022/06/04 06:44:39;;;;;;;5.13;3.70;;;18.40;99.90;;;;;;5025853;28;20037;-85
2022/06/04 06:47:05;;;;;;;5.05;4.10;;;18.20;99.90;;;;;;5027750;28;20037;-85
2022/06/04 06:49:31;;;;;;;5.03;4.30;;;18.20;99.90;;;;;;5026607;28;20448;-89
2022/06/04 06:51:58;;;;;;;5.45;4.10;;;;;;;;;;5027232;28;20607;-90
2022/06/04 06:54:27;;;;;;;5.95;4.20;;;18.60;99.90;;;;;;5027852;28;20049;-87
2022/06/04 06:56:54;;;;;;;4.97;3.38;;;18.40;99.90;;;;;;5013614;28;20052;-87
2022/06/04 06:59:20;;;;;;;4.15;3.65;;;18.40;99.90;;;;;;5029512;28;20040;-88
2022/06/04 07:01:48;;;;;;;5.72;4.60;;;18.50;99.90;;;;;;5028120;28;20057;-88
2022/06/04 07:04:14;;;;;;;;;;;18.40;99.90;;;;;;5026542;28;20059;-86
2022/06/04 07:06:45;;;;;;;4.93;4.10;;;18.60;99.90;;;;;;5026330;28;21532;-87
2022/06/04 07:09:21;;;;;;;6.80;3.92;;;19.00;99.90;;;;;;5032250;28;20102;-90
2022/06/04 07:11:47;;;;;;;5.32;3.72;;;19.00;99.90;;;;;;5032908;28;20532;-89
2022/06/04 07:14:13;;;;;;;4.97;3.72;;;19.30;99.90;;;;;;5043368;28;20041;-88
2022/06/04 07:16:40;;;;;;;7.65;4.80;;;19.10;99.90;;;;;;5049615;28;20140;-88
2022/06/04 07:19:06;;;;;;;5.82;4.13;;;18.60;99.90;;;;;;5033387;28;20053;-85
2022/06/04 07:21:31;;;;;;;5.18;3.50;;;18.60;99.90;;;;;;5044936;28;20056;-87
2022/06/04 07:23:58;;;;;;;4.28;3.60;;;19.20;99.90;;;;;;5045695;28;20053;-88
2022/06/04 07:26:25;;;;;;;6.30;3.97;;;19.30;99.90;;;;;;5040906;28;20478;-87
2022/06/04 07:28:52;;;;;;;4.90;3.47;;;19.10;99.90;;;;;;5044513;28;20063;-87
2022/06/04 07:31:18;;;;;;;4.38;3.72;;;18.80;99.90;;;;;;5028656;28;20047;-88
2022/06/04 07:33:45;;;;;;;6.07;4.40;;;18.60;99.90;;;;;;5046129;28;20041;-88
2022/06/04 07:36:15;;;;;;;;;;;18.40;99.90;;;;;;5052758;28;20151;-88
2022/06/04 07:38:41;;;;;;;8.18;4.28;;;18.10;99.90;;;;;;5065662;28;20018;-88
2022/06/04 07:41:06;;;;;;;5.10;3.80;;;17.90;99.90;;;;;;5054477;28;20045;-88
2022/06/04 07:43:32;;;;;;;5.30;4.03;;;18.00;99.90;;;;;;5034120;28;20041;-88
2022/06/04 07:45:58;;;;;;;5.72;3.83;;;17.60;99.90;;;;;;5060724;28;20116;-88
2022/06/04 07:48:24;;;;;;;3.45;3.15;;;17.60;99.90;;;;;;5036935;28;20108;-88
2022/06/04 07:50:49;;;;;;;6.47;4.40;;;17.50;99.90;;;;;;5047490;28;20052;-88
2022/06/04 07:53:15;;;;;;;6.03;3.78;;;;;;;;;;5067962;28;20041;-87
2022/06/04 07:55:42;;;;;;;5.60;4.10;;;17.40;99.90;;;;;;5075088;28;20033;-88
2022/06/04 07:58:08;;;;;;;4.97;3.63;;;17.50;99.90;;;;;;5072141;28;20051;-88
2022/06/04 08:00:38;;;;;;;5.32;3.60;;;17.20;99.90;;;;;;5059955;28;20089;-87
2022/06/04 08:03:05;;;;;;;4.65;3.05;;;17.20;99.90;;;;;;5048852;28;20041;-88
2022/06/04 08:05:30;;;;;;;4.00;3.40;;;17.50;99.90;;;;;;5049769;28;20505;-87
2022/06/04 08:07:56;;;;;;;4.07;2.95;;;17.60;99.90;;;;;;5050958;28;20060;-87
2022/06/04 08:10:22;;;;;;;3.17;2.85;;;17.80;99.90;;;;;;5052131;28;20083;-88
2022/06/04 08:12:48;;;;;;;5.55;3.45;;;18.00;99.90;;;;;;5052625;28;20465;-89
2022/06/04 08:15:14;;;;;;;4.32;3.33;;;18.10;99.90;;;;;;5036025;28;20048;-88
2022/06/04 08:17:40;;;;;;;4.40;3.33;;;18.20;99.90;;;;;;5042350;28;20053;-89
2022/06/04 08:20:06;;;;;;;3.50;3.20;;;18.50;99.90;;;;;;5045400;28;20116;-90
2022/06/04 08:22:32;;;;;;;5.05;3.25;;;18.80;99.90;;;;;;5042882;28;20406;-87
2022/06/04 08:24:58;;;;;;;4.57;3.67;;;18.50;99.90;;;;;;5034188;28;20112;-88
2022/06/04 08:27:24;;;;;;;4.82;3.88;;;18.50;99.90;;;;;;5041338;28;20047;-89
2022/06/04 08:29:50;;;;;;;4.18;3.72;;;18.90;99.90;;;;;;5048948;28;20527;-88
2022/06/04 08:32:16;;;;;;;5.05;3.78;;;18.80;99.90;;;;;;5035982;28;20049;-88
2022/06/04 08:34:41;;;;;;;4.15;3.75;;;19.00;99.90;;;;;;5045602;28;20036;-89
2022/06/04 08:37:07;;;;;;;4.72;3.50;;;18.60;99.90;;;;;;5065911;28;20056;-88
2022/06/04 08:39:33;;;;;;;5.38;3.63;;;19.00;99.90;;;;;;5044603;28;20502;-85
2022/06/04 08:42:13;;;;;;;6.15;4.05;;;19.20;99.90;;;;;;5045534;28;20025;-86
2022/06/04 08:44:41;;;;;;;4.50;3.50;;;19.30;99.90;;;;;;5051181;28;20143;-87
2022/06/04 08:47:07;;;;;;;4.38;3.90;;;19.50;99.90;;;;;;5051135;28;20043;-85
2022/06/04 08:49:48;;;;;;;4.28;3.92;;;18.90;99.90;;;;;;5049604;28;20163;-84
2022/06/04 08:52:38;;;;;;;5.60;4.40;;;18.90;99.90;;;;;;5048755;28;20061;-85
2022/06/04 08:58:18;;;;;;;5.15;3.47;;;18.90;99.90;;;;;;5058789;28;20191;-85
2022/06/04 09:01:00;;;;;;;5.65;3.70;;;18.90;99.90;;;;;;5052960;28;20040;-87
2022/06/04 09:03:38;;;;;;;4.85;3.95;;;18.70;99.90;;;;;;5050096;28;20576;-85
2022/06/04 09:06:29;;;;;;;5.25;4.03;;;18.50;99.90;;;;;;5053876;28;20045;-85
2022/06/04 09:09:33;;;;;;;5.90;3.80;;;18.40;99.90;;;;;;5051595;28;20111;-85
2022/06/04 09:12:26;;;;;;;4.55;3.88;;;18.80;99.90;;;;;;5039788;28;20064;-86
2022/06/04 09:15:24;;;;;;;5.72;3.90;;;18.90;99.90;;;;;;5045219;28;20112;-86
2022/06/04 09:17:53;;;;;;;5.15;4.25;;;19.00;99.90;;;;;;5032178;28;20045;-85
2022/06/04 09:20:40;;;;;;;6.18;4.55;;;19.20;99.90;;;;;;5031520;28;20115;-86
2022/06/04 09:23:16;;;;;;;6.13;3.85;;;19.40;99.90;;;;;;5032475;28;20425;-85
2022/06/04 09:26:24;;;;;;;6.10;4.40;;;19.50;99.90;;;;;;5052066;28;20098;-85
2022/06/04 09:29:01;;;;;;;6.13;4.72;;;19.30;99.90;;;;;;5035799;28;20049;-86
2022/06/04 09:32:03;;;;;;;5.03;3.90;;;19.20;99.90;;;;;;5030981;28;20046;-85
2022/06/04 09:34:36;;;;;;;6.57;4.40;;;19.20;99.90;;;;;;5006780;28;20478;-86
2022/06/04 09:37:02;;;;;;;4.72;4.32;;;19.40;99.90;;;;;;5047437;28;20041;-86
2022/06/04 09:39:31;;;;;;;8.77;4.43;;;19.50;99.90;;;;;;5031656;28;20053;-86
2022/06/04 09:42:00;;;;;;;6.60;4.55;;;19.60;99.90;;;;;;5030273;28;20565;-85
2022/06/04 09:44:27;;;;;;;4.95;4.45;;;19.50;99.90;;;;;;5020589;28;20060;-85
2022/06/04 09:47:17;;;;;;;8.80;4.80;;;19.80;99.90;;;;;;5051625;28;20040;-84
2022/06/04 09:49:51;;;;;;;6.65;4.85;;;19.70;99.90;;;;;;5031625;28;20073;-85
2022/06/04 09:52:29;;;;;;;4.63;4.22;;;19.90;99.90;;;;;;5049464;28;20107;-86
2022/06/04 09:55:06;;;;;;;6.47;5.18;;;20.00;99.90;;;;;;5049872;28;20053;-85
2022/06/04 09:57:37;;;;;;;5.93;5.28;;;20.00;99.90;;;;;;5050154;28;20168;-85
2022/06/04 10:00:18;;;;;;;6.90;5.30;;;19.80;99.90;;;;;;5048482;28;20032;-85
2022/06/04 10:03:17;;;;;;;6.68;4.30;;;19.80;99.90;;;;;;5046259;28;20086;-85
2022/06/04 10:05:53;;;;;;;5.32;4.82;;;20.00;99.90;;;;;;5028017;28;20135;-85
2022/06/04 10:08:24;;;;;;;5.18;4.68;;;19.80;99.90;;;;;;5050265;28;20037;-85
2022/06/04 10:11:01;;;;;;;4.97;3.88;;;19.90;99.90;;;;;;5050967;28;20115;-85
2022/06/04 10:13:46;;;;;;;5.43;4.68;;;19.90;99.90;;;;;;5030226;28;20052;-85
2022/06/04 10:16:33;;;;;;;4.10;3.70;;;19.80;99.90;;;;;;5047843;28;20116;-86
2022/06/04 10:19:01;;;;;;;5.82;4.53;;;19.80;99.90;;;;;;5049055;28;20064;-85
2022/06/04 10:21:28;;;;;;;5.20;4.60;;;19.90;99.90;;;;;;5065972;28;20072;-85
2022/06/04 10:23:57;;;;;;;5.90;4.10;;;20.00;99.90;;;;;;5065440;28;20492;-85
2022/06/04 10:27:07;;;;;;;4.30;3.90;;;19.90;99.90;;;;;;5066676;28;20064;-85
2022/06/04 10:30:01;;;;;;;5.38;4.25;;;20.30;99.90;;;;;;5032253;28;20053;-85
2022/06/04 10:32:48;;;;;;;4.55;4.07;;;20.50;99.90;;;;;;5022113;28;20132;-85
2022/06/04 10:35:37;;;;;;;5.50;5.00;;;21.40;99.90;;;;;;5050664;28;20044;-85
2022/06/04 10:38:41;;;;;;;5.65;4.15;;;21.20;99.90;;;;;;5029443;28;20055;-85
2022/06/04 10:41:35;;;;;;;5.88;4.05;;;21.20;99.90;;;;;;5046667;28;20052;-85
2022/06/04 10:44:39;;;;;;;6.20;4.22;;;21.20;99.90;;;;;;5041302;28;20040;-85
2022/06/04 10:47:25;;;;;;;4.82;4.00;;;21.30;99.90;;;;;;5027795;28;20446;-85
2022/06/04 10:50:29;;;;;;;5.77;4.30;;;21.30;99.90;;;;;;5010645;28;20061;-85
2022/06/04 10:53:01;;;;;;;5.00;3.88;;;21.40;99.90;;;;;;5006720;28;20049;-85
2022/06/04 10:55:45;;;;;;;4.78;4.10;;;21.00;99.90;;;;;;5008344;28;20100;-85
2022/06/04 10:58:26;;;;;;;6.10;4.60;;;21.20;99.90;;;;;;4975563;28;20042;-85
2022/06/04 11:00:51;;;;;;;5.22;3.92;;;21.20;99.90;;;;;;5023066;28;20050;-85
2022/06/04 11:03:36;;;;;;;4.68;3.65;;;21.10;99.90;;;;;;5007929;28;20438;-85
2022/06/04 11:06:12;;;;;;;4.80;4.30;;;20.80;99.90;;;;;;5008081;28;20073;-86
2022/06/04 11:08:48;;;;;;;4.82;4.32;;;21.10;99.90;;;;;;5008172;28;20049;-86
2022/06/04 11:11:24;;;;;;;4.85;4.20;;;21.10;99.90;;;;;;5008331;28;20064;-86
2022/06/04 11:14:03;;;;;;;4.72;4.25;;;21.00;99.90;;;;;;5010304;28;20053;-86
2022/06/04 11:16:39;;;;;;;5.88;3.60;;;21.20;99.90;;;;;;5017567;28;20503;-87
2022/06/04 11:19:13;;;;;;;5.43;4.30;;;21.50;99.90;;;;;;5010809;28;20060;-85
2022/06/04 11:21:50;;;;;;;6.30;4.20;;;21.40;99.90;;;;;;5025938;28;20045;-85
2022/06/04 11:24:17;;;;;;;4.85;3.92;;;21.40;99.90;;;;;;5040583;28;20370;-85
2022/06/04 11:26:49;;;;;;;4.40;3.85;;;21.70;99.90;;;;;;5050118;28;20516;-84
2022/06/04 11:29:14;;;;;;;4.63;3.97;;;21.80;99.90;;;;;;5064744;28;20057;-85
2022/06/04 11:31:57;;;;;;;4.55;4.10;;;21.70;99.90;;;;;;5049954;28;20048;-85
2022/06/04 11:34:50;;;;;;;3.47;3.17;;;21.80;99.90;;;;;;5031857;28;20398;-85
2022/06/04 11:37:50;;;;;;;4.88;4.15;;;21.60;99.90;;;;;;5046344;28;20052;-87
2022/06/04 11:40:42;;;;;;;5.72;4.35;;;21.70;99.90;;;;;;5048530;28;20052;-85
2022/06/04 11:43:28;;;;;;;5.03;4.53;;;21.70;99.90;;;;;;5052089;28;20090;-86
2022/06/04 11:46:32;;;;;;;4.53;4.07;;;21.90;99.90;;;;;;5048704;28;20523;-85
2022/06/04 11:49:37;;;;;;;4.90;4.50;;;21.90;99.90;;;;;;5035339;28;20084;-86
2022/06/04 11:52:15;;;;;;;5.25;4.75;;;22.20;99.90;;;;;;5057190;28;20060;-86
2022/06/04 11:55:12;;;;;;;7.25;4.70;;;22.20;99.90;;;;;;5028552;28;20490;-86
2022/06/04 11:58:04;;;;;;;6.55;4.93;;;21.80;99.90;;;;;;5063009;28;20120;-85
2022/06/04 12:00:37;;;;;;;4.97;4.30;;;21.90;99.90;;;;;;5039388;28;20053;-86
2022/06/04 12:03:33;;;;;;;5.25;4.75;;;22.20;99.90;;;;;;5052242;28;20045;-86
2022/06/04 12:06:30;;;;;;;4.88;4.05;;;21.90;99.60;;;;;;5051933;28;20060;-85
2022/06/04 12:09:10;;;;;;;4.60;4.20;;;22.20;99.90;;;;;;5051820;28;20119;-85
2022/06/04 12:12:02;;;;;;;5.75;4.32;;;22.10;99.60;;;;;;5051711;28;20049;-86
2022/06/04 12:14:42;;;;;;;4.82;4.05;;;22.30;96.90;;;;;;5052487;28;20049;-85
2022/06/04 12:17:14;;;;;;;6.05;4.40;;;22.20;97.20;;;;;;5058109;28;20053;-86
2022/06/04 12:25:39;;;;;;;4.18;3.78;;;22.40;97.20;;;;;;5056311;28;20501;-85
2022/06/04 12:28:26;;;;;;;4.57;3.53;;;22.50;95.80;;;;;;5035129;28;20041;-84
2022/06/04 12:30:52;;;;;;;3.33;3.03;;;22.40;96.60;;;;;;5041382;28;20096;-85
2022/06/04 12:33:27;;;;;;;4.35;3.30;;;22.70;96.90;;;;;;5064040;28;20482;-85
2022/06/04 12:35:59;;;;;;;3.53;3.22;;;22.70;97.40;;;;;;5033153;28;20045;-86
2022/06/04 12:38:25;;;;;;;5.78;3.25;;;22.90;95.50;;;;;;5054180;28;20055;-85
2022/06/04 12:41:02;;;;;;;4.13;3.15;;;23.00;93.90;;;;;;5051611;28;20426;-86
2022/06/04 12:43:36;;;;;;;3.58;3.25;;;23.20;93.30;;;;;;5035103;28;20080;-86
2022/06/04 12:46:14;;;;;;;6.18;3.90;;;23.20;93.60;;;;;;5047712;28;20040;-86
2022/06/04 12:48:52;;;;;;;4.28;3.00;;;23.00;92.90;;;;;;5051955;28;20048;-86
2022/06/04 12:51:56;;;;;;;3.72;2.80;;;23.20;93.10;;;;;;5052729;28;20057;-86
2022/06/04 12:54:25;;;;;;;5.63;3.22;;;23.50;92.10;;;;;;5033851;28;20103;-87
2022/06/04 12:56:57;;;;;;;4.28;2.90;;;23.00;87.10;;;;;;5051155;28;20285;-86
2022/06/04 12:59:27;;;;;;;3.25;2.88;;;22.80;90.70;;;;;;5052757;28;20033;-86
2022/06/04 13:01:53;;;;;;;3.83;2.90;;;22.70;90.70;;;;;;5051437;28;20045;-86
2022/06/04 13:04:22;;;;;;;4.90;2.70;;;22.90;91.50;;;;;;5030844;28;20119;-86
2022/06/04 13:06:52;;;;;;;3.65;3.00;;;23.10;92.80;;;;;;5050980;28;20052;-86
2022/06/04 13:09:54;;;;;;;3.65;2.70;;;23.30;90.80;;;;;;5050827;28;20133;-86
2022/06/04 13:12:34;;;;;;;3.88;2.80;;;22.90;91.20;;;;;;5052726;28;20045;-86
2022/06/04 13:15:37;;;;;;;4.03;3.03;;;23.00;91.00;;;;;;5051040;28;20060;-86
2022/06/04 13:18:03;;;;;;;4.05;3.38;;;22.80;90.80;;;;;;5032895;28;20506;-86
2022/06/04 13:20:36;;;;;;;4.45;3.47;;;22.90;91.00;;;;;;5040721;28;20067;-85
2022/06/04 13:23:21;;;;;;;13.20;10.18;;;22.70;86.50;;;;;;5054883;28;20447;-86
2022/06/04 13:26:12;;;;;;;4.55;4.15;;;22.60;88.20;;;;;;5067180;28;20040;-85
2022/06/04 13:28:41;;;;;;;8.70;7.82;;;22.70;89.20;;;;;;5043102;28;20106;-86
2022/06/04 13:31:25;;;;;;;5.97;3.70;;;22.60;90.20;;;;;;5060585;28;20037;-84
2022/06/04 13:33:52;;;;;;;5.80;4.28;;;22.90;88.30;;;;;;5021804;28;20060;-84